Time;durP1;ratioP1;P1;durP2;ratioP2;P2;SDS_P1;SDS_P2;PMS_P1;PMS_P2;Temp;Humidity;BMP_temperature;BMP_pressure;BME280_temperature;BME280_humidity;BME280_pressure;Samples;Min_cycle;Max_cycle;Signal;HPM_P1;HPM_P2
2023/12/14 00:00:45;;;;;;;28.50;21.60;;;;;;;6.53;100.00;100680.97;5242378;28;20033;-81
2023/12/14 00:03:17;;;;;;;32.30;22.23;;;;;;;6.46;100.00;100690.44;5241054;28;20064;-80
2023/12/14 00:05:48;;;;;;;23.53;18.87;;;;;;;6.36;100.00;100686.13;5242062;28;20029;-79
2023/12/14 00:08:19;;;;;;;20.30;16.80;;;;;;;6.39;100.00;100696.44;5241995;28;20038;-81
2023/12/14 00:10:51;;;;;;;21.17;16.87;;;;;;;6.30;100.00;100699.88;5240755;28;20478;-80
2023/12/14 00:13:23;;;;;;;20.77;17.17;;;;;;;6.24;100.00;100701.59;5241839;28;20108;-80
2023/12/14 00:15:55;;;;;;;21.00;16.67;;;;;;;6.24;100.00;100715.38;5242601;28;20473;-80
2023/12/14 00:18:26;;;;;;;21.27;16.60;;;;;;;6.20;100.00;100709.34;5257681;28;20044;-80
2023/12/14 00:20:58;;;;;;;18.43;15.53;;;;;;;6.15;100.00;100717.94;5240995;28;20025;-79
2023/12/14 00:23:29;;;;;;;18.23;16.00;;;;;;;6.17;100.00;100731.78;5242957;28;20057;-79
2023/12/14 00:26:01;;;;;;;18.77;16.30;;;;;;;6.18;100.00;100724.00;5244659;28;20052;-79
2023/12/14 00:28:32;;;;;;;19.63;17.23;;;;;;;6.14;100.00;100735.19;5245646;28;20076;-80
2023/12/14 00:31:03;;;;;;;21.13;16.83;;;;;;;6.14;100.00;100742.09;5249188;28;20117;-79
2023/12/14 00:33:35;;;;;;;19.70;17.23;;;;;;;6.10;100.00;100750.69;5248501;28;20029;-78
2023/12/14 00:36:06;;;;;;;24.37;18.60;;;;;;;5.99;100.00;100763.59;5228736;28;20465;-79
2023/12/14 00:38:39;;;;;;;22.00;17.33;;;;;;;5.95;100.00;100769.56;5241762;28;20384;-79
2023/12/14 00:41:10;;;;;;;;;;;;;;;6.03;100.00;100779.13;5241637;28;20337;-79
2023/12/14 00:43:42;;;;;;;23.85;17.98;;;;;;;5.81;100.00;100785.00;5241659;28;19928;-79
2023/12/14 00:46:13;;;;;;;24.03;19.37;;;;;;;5.75;100.00;100792.75;5256618;28;20030;-80
2023/12/14 00:48:45;;;;;;;22.40;18.57;;;;;;;5.65;100.00;100790.06;5241626;28;20472;-80
2023/12/14 00:51:16;;;;;;;28.33;20.77;;;;;;;5.62;100.00;100796.94;5241556;28;20033;-80
2023/12/14 00:53:47;;;;;;;29.53;22.53;;;;;;;5.55;100.00;100800.31;5239660;28;20095;-80
2023/12/14 00:56:19;;;;;;;30.27;22.03;;;;;;;5.49;100.00;100806.34;5240305;28;20081;-79
2023/12/14 00:58:50;;;;;;;30.20;20.77;;;;;;;5.46;100.00;100806.31;5241909;28;20033;-80
2023/12/14 01:01:21;;;;;;;31.47;23.77;;;;;;;5.41;100.00;100815.72;5250726;28;20146;-82
2023/12/14 01:03:53;;;;;;;30.83;21.37;;;;;;;5.42;100.00;100809.69;5256090;28;20105;-81
2023/12/14 01:06:24;;;;;;;33.93;23.20;;;;;;;5.34;100.00;100813.94;5271577;28;20034;-79
2023/12/14 01:08:55;;;;;;;32.60;22.03;;;;;;;5.30;100.00;100808.75;5254142;28;20056;-79
2023/12/14 01:11:27;;;;;;;29.97;21.57;;;;;;;5.30;100.00;100821.66;5256048;28;20100;-80
2023/12/14 01:13:58;;;;;;;32.43;20.90;;;;;;;5.23;100.00;100813.81;5252548;28;20473;-80
2023/12/14 01:16:29;;;;;;;26.00;20.07;;;;;;;5.22;100.00;100837.97;5256772;28;20030;-80
2023/12/14 01:19:01;;;;;;;25.80;19.37;;;;;;;5.14;100.00;100831.84;5241303;28;20121;-80
2023/12/14 01:21:32;;;;;;;23.80;17.70;;;;;;;5.11;100.00;100849.03;5241177;28;20061;-80
2023/12/14 01:24:04;;;;;;;22.63;18.13;;;;;;;5.13;100.00;100849.06;5243607;28;20037;-80
2023/12/14 01:26:36;;;;;;;24.63;17.35;;;;;;;5.07;100.00;100849.88;5245235;28;20416;-78
2023/12/14 01:29:07;;;;;;;25.20;18.87;;;;;;;5.05;100.00;100859.28;5260116;28;20080;-79
2023/12/14 01:31:39;;;;;;;25.73;18.00;;;;;;;5.09;100.00;100874.00;5244968;28;20083;-79
2023/12/14 01:34:12;;;;;;;20.97;16.87;;;;;;;5.10;100.00;100868.00;5260111;28;20037;-79
2023/12/14 01:36:43;;;;;;;19.35;15.90;;;;;;;5.09;100.00;100879.16;5245112;28;20104;-81
2023/12/14 01:39:15;;;;;;;19.10;16.30;;;;;;;5.05;100.00;100887.72;5244703;28;20121;-80
2023/12/14 01:41:46;;;;;;;19.00;15.50;;;;;;;5.06;100.00;100888.59;5244507;28;20040;-80
2023/12/14 01:44:17;;;;;;;18.10;15.87;;;;;;;5.02;100.00;100892.00;5244534;28;20068;-80
2023/12/14 01:46:49;;;;;;;17.33;15.07;;;;;;;5.03;100.00;100901.50;5244507;28;20026;-80
2023/12/14 01:49:20;;;;;;;17.97;14.90;;;;;;;5.07;100.00;100898.97;5244679;28;20543;-80
2023/12/14 01:51:52;;;;;;;20.30;15.87;;;;;;;5.10;100.00;100901.59;5244599;28;20494;-80
2023/12/14 01:54:23;;;;;;;20.30;15.80;;;;;;;5.06;100.00;100910.13;5244920;28;20053;-78
2023/12/14 01:56:55;;;;;;;20.10;15.77;;;;;;;5.04;100.00;100914.44;5243179;28;20033;-79
2023/12/14 01:59:26;;;;;;;18.60;15.23;;;;;;;5.10;100.00;100921.38;5259429;28;20043;-79
2023/12/14 02:01:57;;;;;;;18.40;14.37;;;;;;;5.01;100.00;100927.31;5244710;28;20459;-79
2023/12/14 02:04:30;;;;;;;19.97;15.33;;;;;;;5.00;100.00;100935.03;5244057;28;20034;-80
2023/12/14 02:07:01;;;;;;;17.58;13.82;;;;;;;4.97;100.00;100937.56;5244344;28;20048;-80
2023/12/14 02:09:33;;;;;;;18.53;14.67;;;;;;;4.94;100.00;100940.97;5244020;28;20029;-80
2023/12/14 02:12:05;;;;;;;17.00;14.70;;;;;;;5.01;100.00;100944.53;5243598;28;20168;-80
2023/12/14 02:14:36;;;;;;;18.08;14.57;;;;;;;4.94;100.00;100948.72;5243865;28;20117;-80
2023/12/14 02:17:07;;;;;;;19.10;15.57;;;;;;;4.90;100.00;100959.88;5244308;28;20041;-80
2023/12/14 02:19:39;;;;;;;17.80;15.27;;;;;;;4.89;100.00;100966.78;5244068;28;20025;-78
2023/12/14 02:22:10;;;;;;;17.10;14.67;;;;;;;4.87;100.00;100972.75;5244172;28;20112;-78
2023/12/14 02:24:41;;;;;;;18.30;15.03;;;;;;;4.85;100.00;100983.06;5244076;28;20076;-80
2023/12/14 02:27:13;;;;;;;17.63;14.57;;;;;;;4.92;100.00;100981.44;5259365;28;20033;-80
2023/12/14 02:29:44;;;;;;;18.20;15.37;;;;;;;4.83;100.00;100973.53;5160595;28;20505;-81
2023/12/14 02:32:15;;;;;;;20.07;15.43;;;;;;;4.82;100.00;100982.16;5137941;28;20409;-81
2023/12/14 02:34:47;;;;;;;17.70;15.37;;;;;;;4.84;100.00;100980.47;5138376;28;20039;-81
2023/12/14 02:37:18;;;;;;;19.27;15.63;;;;;;;4.74;100.00;100982.91;5151643;28;20032;-80
2023/12/14 02:39:49;;;;;;;19.90;16.10;;;;;;;4.82;100.00;100990.75;5137703;28;20043;-80
2023/12/14 02:42:21;;;;;;;19.03;15.40;;;;;;;4.73;100.00;100994.09;5138507;29;20450;-81
2023/12/14 02:44:53;;;;;;;21.43;16.70;;;;;;;4.80;100.00;101004.50;5139039;28;20062;-81
2023/12/14 02:47:25;;;;;;;19.02;15.48;;;;;;;4.77;100.00;101007.06;5138885;28;20045;-81
2023/12/14 02:49:56;;;;;;;19.20;16.00;;;;;;;4.74;100.00;101019.06;5138634;28;20111;-80
2023/12/14 02:52:27;;;;;;;18.67;15.93;;;;;;;4.75;100.00;101025.13;5137754;28;20036;-80
2023/12/14 02:54:59;;;;;;;20.47;16.93;;;;;;;4.74;100.00;101031.13;5138072;29;20036;-80
2023/12/14 02:57:30;;;;;;;21.57;16.80;;;;;;;4.80;100.00;101032.91;5138678;28;20036;-80
2023/12/14 03:00:02;;;;;;;21.73;17.20;;;;;;;4.69;100.00;101036.22;5139224;28;20118;-80
2023/12/14 03:02:34;;;;;;;18.98;15.68;;;;;;;4.76;100.00;101029.41;5137915;28;20036;-81
2023/12/14 03:05:06;;;;;;;20.47;15.87;;;;;;;4.68;100.00;101046.50;5147556;29;20044;-80
2023/12/14 03:07:37;;;;;;;19.10;15.37;;;;;;;4.70;100.00;101053.44;5154883;28;20062;-80
2023/12/14 03:10:09;;;;;;;19.53;15.93;;;;;;;4.64;100.00;101045.59;5155949;28;20036;-81
2023/12/14 03:12:40;;;;;;;19.53;15.70;;;;;;;4.64;100.00;101055.94;5138281;29;20399;-79
2023/12/14 03:15:11;;;;;;;20.07;15.77;;;;;;;4.60;100.00;101061.00;5138462;29;20040;-80
2023/12/14 03:17:43;;;;;;;17.80;15.43;;;;;;;4.63;100.00;101061.94;5137599;29;20059;-81
2023/12/14 03:20:14;;;;;;;17.80;14.77;;;;;;;4.62;100.00;101064.47;5138540;28;20110;-81
2023/12/14 03:22:45;;;;;;;19.37;14.57;;;;;;;4.61;100.00;101063.63;5136500;28;20038;-80
2023/12/14 03:25:17;;;;;;;18.67;14.93;;;;;;;4.66;100.00;101063.69;5138495;28;20036;-81
2023/12/14 03:27:48;;;;;;;17.87;15.23;;;;;;;4.67;100.00;101058.56;5137342;28;20032;-80
2023/12/14 03:30:19;;;;;;;19.73;14.93;;;;;;;4.69;100.00;101063.75;5138014;28;20398;-81
2023/12/14 03:32:51;;;;;;;19.07;15.23;;;;;;;4.70;100.00;101066.34;5138114;29;20047;-80
2023/12/14 03:35:22;;;;;;;20.90;16.57;;;;;;;4.64;100.00;101066.25;5138221;28;20036;-81
2023/12/14 03:37:53;;;;;;;20.37;16.00;;;;;;;4.61;100.00;101058.47;5138550;29;20074;-81
2023/12/14 03:40:25;;;;;;;17.73;15.63;;;;;;;4.63;100.00;101061.06;5152971;28;20585;-80
2023/12/14 03:42:56;;;;;;;17.90;15.67;;;;;;;4.57;100.00;101072.16;5137887;29;20039;-80
2023/12/14 03:45:28;;;;;;;19.60;16.53;;;;;;;4.62;100.00;101077.38;5136585;28;20036;-81
2023/12/14 03:47:59;;;;;;;18.87;16.60;;;;;;;4.56;100.00;101078.19;5137702;28;20379;-79
2023/12/14 03:50:32;;;;;;;18.70;16.53;;;;;;;4.56;100.00;101088.50;5138067;29;20032;-79
2023/12/14 03:53:03;;;;;;;16.60;14.90;;;;;;;4.61;100.00;101088.59;5137833;29;20099;-79
2023/12/14 03:55:35;;;;;;;18.37;15.33;;;;;;;4.55;100.00;101092.78;5138022;28;20063;-81
2023/12/14 03:58:06;;;;;;;18.03;15.90;;;;;;;4.51;100.00;101096.16;5137945;29;20039;-81
2023/12/14 04:00:37;;;;;;;18.30;16.33;;;;;;;4.51;100.00;101096.16;5138265;29;20032;-80
2023/12/14 04:03:09;;;;;;;16.47;14.77;;;;;;;4.54;100.00;101097.91;5137934;28;20085;-81
2023/12/14 04:05:40;;;;;;;22.13;16.37;;;;;;;4.55;100.00;101097.94;5137727;29;20027;-80
2023/12/14 04:08:12;;;;;;;20.27;15.80;;;;;;;4.55;100.00;101099.66;5137443;28;20043;-80
2023/12/14 04:10:43;;;;;;;20.03;16.23;;;;;;;4.53;100.00;101103.94;5138064;28;20059;-81
2023/12/14 04:13:14;;;;;;;20.07;16.40;;;;;;;4.51;100.00;101092.72;5137542;29;20086;-80
2023/12/14 04:15:46;;;;;;;17.90;16.10;;;;;;;4.48;100.00;101088.38;5137948;28;20028;-80
2023/12/14 04:18:17;;;;;;;17.97;16.17;;;;;;;4.55;100.00;101097.09;5137560;28;20036;-80
2023/12/14 04:20:49;;;;;;;19.87;16.33;;;;;;;4.48;100.00;101097.84;5137491;29;20024;-80
2023/12/14 04:23:20;;;;;;;17.50;14.83;;;;;;;4.55;100.00;101104.81;5136454;28;20047;-80
2023/12/14 04:25:51;;;;;;;17.63;15.73;;;;;;;4.51;100.00;101109.06;5136160;28;20059;-82
2023/12/14 04:28:23;;;;;;;17.33;15.53;;;;;;;4.51;100.00;101121.97;5137355;28;20115;-81
2023/12/14 04:30:54;;;;;;;17.93;16.03;;;;;;;4.49;100.00;101127.94;5137571;29;20501;-81
2023/12/14 04:33:25;;;;;;;17.43;15.17;;;;;;;4.48;100.00;101133.97;5137477;29;20467;-80
2023/12/14 04:35:57;;;;;;;18.20;15.93;;;;;;;4.47;100.00;101137.38;5137523;29;20062;-80
2023/12/14 04:38:28;;;;;;;15.33;13.73;;;;;;;4.54;100.00;101149.53;5137564;29;20039;-80
2023/12/14 04:41:00;;;;;;;17.70;14.67;;;;;;;4.53;100.00;101155.56;5136533;28;20024;-81
2023/12/14 04:43:32;;;;;;;15.67;14.03;;;;;;;4.49;100.00;101153.75;5142264;29;20036;-80
2023/12/14 04:46:03;;;;;;;17.13;15.30;;;;;;;4.43;100.00;101157.13;5153045;29;20024;-80
2023/12/14 04:48:36;;;;;;;18.90;16.97;;;;;;;4.45;100.00;101172.63;5156225;28;20036;-80
2023/12/14 04:51:11;;;;;;;17.30;15.50;;;;;;;4.46;100.00;101176.94;5142145;29;20024;-81
2023/12/14 04:53:42;;;;;;;20.10;15.77;;;;;;;4.41;100.00;101179.44;5137276;28;20040;-81
2023/12/14 04:56:14;;;;;;;18.33;16.40;;;;;;;4.42;100.00;101181.19;5137006;29;20122;-81
2023/12/14 04:58:46;;;;;;;17.70;15.80;;;;;;;4.46;100.00;101184.69;5138601;28;20028;-81
2023/12/14 05:01:17;;;;;;;18.95;16.75;;;;;;;4.48;100.00;101183.88;5140772;29;20127;-81
2023/12/14 05:03:48;;;;;;;18.73;16.20;;;;;;;4.52;100.00;101195.13;5139523;28;20114;-82
2023/12/14 05:06:20;;;;;;;17.57;15.73;;;;;;;4.46;100.00;101206.22;5140749;29;20035;-81
2023/12/14 05:08:51;;;;;;;18.40;16.40;;;;;;;4.46;100.00;101210.50;5140699;28;20040;-81
2023/12/14 05:11:23;;;;;;;18.40;15.97;;;;;;;4.48;100.00;101209.69;5139542;29;20059;-82
2023/12/14 05:13:54;;;;;;;19.87;16.90;;;;;;;4.46;100.00;101218.25;5140172;29;20391;-81
2023/12/14 05:16:26;;;;;;;17.67;15.80;;;;;;;4.45;100.00;101232.88;5140343;28;20513;-81
2023/12/14 05:18:59;;;;;;;20.15;16.45;;;;;;;4.43;100.00;101220.75;5140286;28;20042;-81
2023/12/14 05:21:30;;;;;;;21.13;17.45;;;;;;;4.47;100.00;101238.06;5140342;28;20040;-81
2023/12/14 05:24:02;;;;;;;18.80;16.80;;;;;;;4.45;100.00;101250.09;5140391;28;20061;-81
2023/12/14 05:26:34;;;;;;;20.45;16.85;;;;;;;4.42;100.00;101250.03;5140716;28;20074;-81
2023/12/14 05:29:05;;;;;;;19.93;16.60;;;;;;;4.47;100.00;101249.25;5138581;28;20032;-83
2023/12/14 05:31:36;;;;;;;20.63;17.63;;;;;;;4.43;100.00;101257.78;5139414;28;20036;-81
2023/12/14 05:34:08;;;;;;;20.03;17.80;;;;;;;4.44;100.00;101259.50;5139215;28;20043;-80
2023/12/14 05:36:39;;;;;;;18.87;16.87;;;;;;;4.40;100.00;101260.31;5140384;28;20036;-81
2023/12/14 05:39:10;;;;;;;19.07;17.07;;;;;;;4.41;100.00;101274.09;5140054;28;20475;-81
2023/12/14 05:41:42;;;;;;;18.63;16.63;;;;;;;4.44;100.00;101274.16;5154850;28;20514;-81
2023/12/14 05:44:13;;;;;;;22.20;16.70;;;;;;;4.46;100.00;101282.78;5139840;28;20461;-81
2023/12/14 05:46:45;;;;;;;19.57;17.47;;;;;;;4.39;100.00;101294.69;5139662;28;20123;-81
2023/12/14 05:49:16;;;;;;;19.23;16.30;;;;;;;4.40;100.00;101298.16;5139990;28;20042;-81
2023/12/14 05:51:48;;;;;;;18.17;16.27;;;;;;;4.37;100.00;101312.72;5139623;28;20031;-81
2023/12/14 05:54:20;;;;;;;19.33;15.57;;;;;;;4.42;100.00;101324.88;5140086;28;20122;-80
2023/12/14 05:56:52;;;;;;;20.02;17.90;;;;;;;4.44;100.00;101325.78;5139512;28;20071;-80
2023/12/14 05:59:23;;;;;;;20.03;18.03;;;;;;;4.40;100.00;101331.72;5138522;28;20070;-80
2023/12/14 06:02:01;;;;;;;19.67;17.20;;;;;;;4.48;100.00;101332.75;5139557;29;20501;-80
2023/12/14 06:04:32;;;;;;;18.80;16.02;;;;;;;4.43;100.00;101335.25;5139722;28;20122;-82
2023/12/14 06:07:03;;;;;;;19.03;16.43;;;;;;;4.44;100.00;101336.09;5138351;28;20110;-80
2023/12/14 06:09:35;;;;;;;19.43;17.43;;;;;;;4.41;100.00;101336.03;5138899;29;20043;-79
2023/12/14 06:12:06;;;;;;;18.77;16.57;;;;;;;4.44;100.00;101333.50;5138669;28;20352;-80
2023/12/14 06:14:38;;;;;;;21.13;17.40;;;;;;;4.43;100.00;101340.41;5139231;29;20042;-79
2023/12/14 06:17:09;;;;;;;18.23;16.27;;;;;;;4.42;100.00;101335.22;5139761;29;20035;-80
2023/12/14 06:19:40;;;;;;;18.07;16.27;;;;;;;4.41;100.00;101342.06;5140133;29;20103;-81
2023/12/14 06:22:12;;;;;;;18.00;16.10;;;;;;;4.42;100.00;101350.69;5139516;29;20109;-79
2023/12/14 06:24:43;;;;;;;18.20;16.23;;;;;;;4.41;100.00;101356.69;5139531;29;20036;-79
2023/12/14 06:27:14;;;;;;;18.50;16.30;;;;;;;4.40;100.00;101362.72;5139770;29;20495;-79
2023/12/14 06:29:46;;;;;;;18.03;16.10;;;;;;;4.39;100.00;101361.81;5145005;29;20066;-79
2023/12/14 06:32:17;;;;;;;18.13;15.87;;;;;;;4.43;100.00;101365.31;5143240;29;20031;-79
2023/12/14 06:34:50;;;;;;;19.23;16.40;;;;;;;4.42;100.00;101368.75;5140624;28;20023;-79
2023/12/14 06:37:21;;;;;;;18.15;16.25;;;;;;;4.45;100.00;101374.84;5152433;29;20028;-79
2023/12/14 06:39:52;;;;;;;18.93;17.03;;;;;;;4.44;100.00;101382.56;5153045;28;20115;-79
2023/12/14 06:42:27;;;;;;;16.53;14.83;;;;;;;4.42;100.00;101385.13;5151532;29;20075;-78
2023/12/14 06:45:02;;;;;;;17.48;15.57;;;;;;;4.42;100.00;101390.28;5153015;29;20098;-79
2023/12/14 06:47:33;;;;;;;18.08;16.23;;;;;;;4.42;100.00;101390.28;5152885;29;20031;-79
2023/12/14 06:50:05;;;;;;;17.60;15.80;;;;;;;4.41;100.00;101391.09;5154062;29;20044;-79
2023/12/14 06:52:37;;;;;;;17.70;15.73;;;;;;;4.45;100.00;101398.09;5151825;29;20036;-81
2023/12/14 06:55:09;;;;;;;19.40;16.13;;;;;;;4.38;100.00;101399.66;5139297;29;20028;-79
2023/12/14 06:57:44;;;;;;;19.08;16.77;;;;;;;4.43;100.00;101401.47;5138805;29;20036;-79
2023/12/14 07:00:16;;;;;;;24.67;17.48;;;;;;;4.40;100.00;101411.75;5220950;28;20429;-79
2023/12/14 07:02:47;;;;;;;25.63;19.00;;;;;;;4.33;100.00;101411.59;5137790;29;20094;-79
2023/12/14 07:05:18;;;;;;;30.40;21.30;;;;;;;4.28;100.00;101423.53;5138628;29;20078;-79
2023/12/14 07:07:50;;;;;;;26.47;20.47;;;;;;;4.25;100.00;101423.47;5138702;29;20130;-79
2023/12/14 07:10:22;;;;;;;30.83;20.53;;;;;;;4.20;100.00;101420.78;5138406;29;20382;-78
2023/12/14 07:12:53;;;;;;;28.43;20.47;;;;;;;4.24;100.00;101423.44;5138501;29;20406;-80
2023/12/14 07:15:25;;;;;;;25.33;20.17;;;;;;;4.22;100.00;101433.72;5138516;29;20360;-79
2023/12/14 07:17:56;;;;;;;33.37;22.07;;;;;;;4.19;100.00;101434.50;5137519;29;20505;-79
2023/12/14 07:20:27;;;;;;;26.13;19.47;;;;;;;4.23;100.00;101448.34;5138153;29;20375;-80
2023/12/14 07:22:59;;;;;;;26.03;20.73;;;;;;;4.18;100.00;101452.53;5137686;29;20040;-79
2023/12/14 07:25:30;;;;;;;27.80;22.13;;;;;;;4.15;100.00;101461.09;5138394;29;20399;-79
2023/12/14 07:28:02;;;;;;;25.07;19.90;;;;;;;4.19;100.00;101467.19;5138361;29;20531;-79
2023/12/14 07:30:33;;;;;;;32.33;21.63;;;;;;;4.18;100.00;101479.19;5220124;28;20201;-78
2023/12/14 07:33:05;;;;;;;27.47;19.93;;;;;;;4.13;100.00;101483.38;5138423;29;20035;-78
2023/12/14 07:35:36;;;;;;;31.67;20.37;;;;;;;4.13;100.00;101485.94;5137962;29;20063;-78
2023/12/14 07:38:09;;;;;;;25.00;19.03;;;;;;;4.11;100.00;101491.94;5138384;29;20102;-80
2023/12/14 07:40:41;;;;;;;25.60;19.30;;;;;;;4.10;100.00;101488.44;5138275;28;20050;-79
2023/12/14 07:43:12;;;;;;;25.33;18.73;;;;;;;4.16;100.00;101485.16;5137808;29;20123;-79
2023/12/14 07:45:45;;;;;;;27.60;18.97;;;;;;;4.16;100.00;101485.16;5138357;29;20031;-78
2023/12/14 07:48:16;;;;;;;27.65;19.63;;;;;;;4.14;100.00;101504.91;5137342;28;20060;-78
2023/12/14 07:50:48;;;;;;;23.20;16.37;;;;;;;4.14;100.00;101507.50;5138134;29;20035;-79
2023/12/14 07:53:19;;;;;;;22.90;16.80;;;;;;;4.18;100.00;101506.72;5136738;29;20497;-78
2023/12/14 07:55:51;;;;;;;21.03;16.53;;;;;;;4.16;100.00;101509.25;5138337;29;20031;-78
2023/12/14 07:58:22;;;;;;;21.17;15.97;;;;;;;4.15;100.00;101522.13;5141944;29;20047;-78
2023/12/14 08:00:54;;;;;;;23.20;16.53;;;;;;;4.14;100.00;101525.56;5164078;28;20056;-80
2023/12/14 08:03:25;;;;;;;21.27;16.17;;;;;;;4.07;100.00;101532.22;5151475;29;20039;-80
2023/12/14 08:05:56;;;;;;;23.43;15.13;;;;;;;4.09;100.00;101534.84;5139620;29;20032;-80
2023/12/14 08:08:28;;;;;;;20.23;14.50;;;;;;;4.14;100.00;101539.31;5138951;29;20077;-79
2023/12/14 08:10:59;;;;;;;19.93;14.97;;;;;;;4.10;100.00;101540.06;5138082;29;20124;-79
2023/12/14 08:13:30;;;;;;;16.90;13.37;;;;;;;4.07;100.00;101541.69;5137792;29;20054;-79
2023/12/14 08:16:02;;;;;;;18.47;14.63;;;;;;;4.15;100.00;101548.81;5137302;29;20039;-79
2023/12/14 08:18:33;;;;;;;20.23;13.87;;;;;;;4.11;100.00;101538.38;5136121;29;20411;-79
2023/12/14 08:21:05;;;;;;;20.07;13.50;;;;;;;4.12;100.00;101550.41;5137449;29;20035;-79
2023/12/14 08:23:36;;;;;;;18.90;14.03;;;;;;;4.08;100.00;101564.09;5136255;29;20031;-79
2023/12/14 08:26:09;;;;;;;18.03;13.27;;;;;;;4.05;100.00;101569.16;5137144;29;20454;-79
2023/12/14 08:28:43;;;;;;;17.15;12.50;;;;;;;4.10;100.00;101581.34;5137290;29;20113;-78
2023/12/14 08:31:14;;;;;;;18.92;12.65;;;;;;;4.05;100.00;101584.66;5137172;29;20024;-78
2023/12/14 08:33:45;;;;;;;14.70;12.93;;;;;;;4.08;100.00;101589.91;5219047;28;20032;-79
2023/12/14 08:36:17;;;;;;;15.07;13.47;;;;;;;4.07;100.00;101593.28;5137240;29;20036;-79
2023/12/14 08:38:48;;;;;;;16.00;12.93;;;;;;;4.07;100.00;101590.72;5137304;29;20035;-79
2023/12/14 08:41:19;;;;;;;15.43;12.87;;;;;;;4.05;100.00;101600.13;5136987;29;20189;-79
2023/12/14 08:43:51;;;;;;;15.70;13.30;;;;;;;4.00;100.00;101608.59;5136703;28;20051;-79
2023/12/14 08:46:22;;;;;;;15.63;12.47;;;;;;;4.05;100.00;101610.44;5136754;29;20036;-79
2023/12/14 08:48:54;;;;;;;14.97;12.40;;;;;;;4.05;100.00;101615.59;5136684;29;20065;-79
2023/12/14 08:51:26;;;;;;;17.23;13.47;;;;;;;4.01;100.00;101623.25;5136893;29;20360;-79
2023/12/14 08:53:58;;;;;;;15.57;12.82;;;;;;;4.01;100.00;101623.25;5136839;29;20040;-77
2023/12/14 08:56:29;;;;;;;14.03;12.30;;;;;;;3.99;100.00;101619.78;5135919;29;20103;-78
2023/12/14 08:59:03;;;;;;;18.43;13.63;;;;;;;4.04;100.00;101613.84;5136906;29;20032;-78
2023/12/14 09:01:35;;;;;;;14.55;12.23;;;;;;;4.01;100.00;101624.97;5216929;28;20071;-78
2023/12/14 09:04:06;;;;;;;14.43;11.47;;;;;;;4.04;100.00;101621.59;5136647;29;20509;-78
2023/12/14 09:06:37;;;;;;;17.70;12.60;;;;;;;4.07;100.00;101629.41;5137048;29;20036;-78
2023/12/14 09:09:09;;;;;;;15.30;12.43;;;;;;;4.09;100.00;101633.81;5136970;29;20032;-78
2023/12/14 09:11:40;;;;;;;13.93;12.03;;;;;;;4.04;100.00;101637.06;5218471;28;20060;-78
2023/12/14 09:14:11;;;;;;;14.70;12.30;;;;;;;4.06;100.00;101648.28;5137098;29;20078;-78
2023/12/14 09:16:43;;;;;;;15.13;12.07;;;;;;;4.16;100.00;101661.50;5136824;29;20035;-79
2023/12/14 09:19:14;;;;;;;13.90;10.43;;;;;;;4.08;100.00;101667.28;5137019;29;20071;-79
2023/12/14 09:21:46;;;;;;;12.83;11.33;;;;;;;4.15;100.00;101664.94;5151612;29;20047;-80
2023/12/14 09:24:18;;;;;;;13.40;11.87;;;;;;;4.16;100.00;101678.72;5137044;28;20043;-79
2023/12/14 09:26:49;;;;;;;13.00;10.45;;;;;;;4.17;100.00;101683.91;5137097;29;20032;-80
2023/12/14 09:29:20;;;;;;;14.63;11.03;;;;;;;4.14;100.00;101686.41;5139212;29;20042;-79
2023/12/14 09:31:52;;;;;;;12.33;10.67;;;;;;;4.11;100.00;101690.59;5140814;29;20090;-78
2023/12/14 09:34:24;;;;;;;12.63;10.97;;;;;;;4.17;100.00;101695.91;5137448;29;20050;-79
2023/12/14 09:36:55;;;;;;;13.27;11.87;;;;;;;4.22;100.00;101696.94;5160229;28;20108;-79
2023/12/14 09:39:27;;;;;;;15.53;11.67;;;;;;;4.16;100.00;101702.78;5154428;29;20058;-79
2023/12/14 09:42:07;;;;;;;12.40;10.82;;;;;;;4.24;100.00;101705.59;5144834;28;20044;-80
2023/12/14 09:44:38;;;;;;;12.80;10.88;;;;;;;4.31;100.00;101717.81;5137452;29;20031;-80
2023/12/14 09:47:09;;;;;;;14.83;10.87;;;;;;;4.34;100.00;101711.88;5139769;29;20558;-79
2023/12/14 09:49:42;;;;;;;11.63;10.17;;;;;;;4.31;100.00;101724.72;5139863;29;20187;-78
2023/12/14 09:52:14;;;;;;;11.13;9.90;;;;;;;4.36;100.00;101729.19;5139928;29;20395;-79
2023/12/14 09:54:45;;;;;;;11.17;10.07;;;;;;;4.28;100.00;101735.84;5139807;28;20032;-79
2023/12/14 09:57:19;;;;;;;11.40;10.20;;;;;;;4.38;100.00;101724.06;5139615;29;20121;-79
2023/12/14 09:59:54;;;;;;;12.93;10.52;;;;;;;4.55;100.00;101735.69;5139733;29;20364;-78
2023/12/14 10:02:27;;;;;;;12.63;11.15;;;;;;;4.56;100.00;101752.09;5139622;29;20111;-79
2023/12/14 10:04:58;;;;;;;13.48;9.93;;;;;;;4.47;100.00;101744.09;5221810;28;20074;-80
2023/12/14 10:07:30;;;;;;;19.50;10.83;;;;;;;4.50;100.00;101755.38;5139780;29;20063;-79
2023/12/14 10:10:15;;;;;;;12.77;9.73;;;;;;;4.43;100.00;101768.06;5139323;29;20040;-80
2023/12/14 10:12:54;;;;;;;13.05;10.07;;;;;;;4.33;100.00;101766.91;5138046;28;20055;-79
2023/12/14 10:15:26;;;;;;;13.30;10.65;;;;;;;4.25;100.00;101770.97;5139198;29;20028;-78
2023/12/14 10:17:58;;;;;;;12.57;10.02;;;;;;;4.27;100.00;101770.22;5139264;29;20031;-79
2023/12/14 10:20:29;;;;;;;15.33;10.30;;;;;;;4.25;100.00;101771.88;5139879;29;20101;-80
2023/12/14 10:23:01;;;;;;;12.33;11.07;;;;;;;4.28;100.00;101768.50;5139625;29;20119;-79
2023/12/14 10:25:32;;;;;;;14.77;10.07;;;;;;;4.34;100.00;101774.69;5154267;28;20512;-77
2023/12/14 10:28:04;;;;;;;11.80;10.53;;;;;;;4.32;100.00;101781.53;5138303;29;20395;-78
2023/12/14 10:30:35;;;;;;;12.20;10.10;;;;;;;4.32;100.00;101784.13;5139251;29;20074;-79
2023/12/14 10:33:07;;;;;;;13.23;10.20;;;;;;;4.37;100.00;101779.97;5138244;28;20031;-78
2023/12/14 10:35:38;;;;;;;15.03;11.27;;;;;;;4.25;100.00;101779.63;5139283;28;20442;-78
2023/12/14 10:38:11;;;;;;;12.00;10.10;;;;;;;4.15;100.00;101783.66;5139281;29;20063;-79
2023/12/14 10:40:44;;;;;;;12.18;10.30;;;;;;;4.21;100.00;101785.50;5139351;29;20467;-79
2023/12/14 10:43:16;;;;;;;13.30;10.48;;;;;;;4.23;100.00;101789.00;5138511;29;20189;-79
2023/12/14 10:45:47;;;;;;;15.07;11.57;;;;;;;4.23;100.00;101791.59;5138986;29;20118;-79
2023/12/14 10:48:20;;;;;;;12.83;10.60;;;;;;;4.28;100.00;101794.31;5138816;29;20166;-79
2023/12/14 10:50:55;;;;;;;14.20;10.82;;;;;;;4.28;100.00;101805.53;5139032;29;20050;-80
2023/12/14 10:53:26;;;;;;;11.30;10.10;;;;;;;4.28;100.00;101791.72;5139026;29;20057;-80
2023/12/14 10:56:01;;;;;;;10.57;9.07;;;;;;;4.34;100.00;101797.94;5139066;29;20032;-78
2023/12/14 10:58:53;;;;;;;9.98;8.65;;;;;;;4.48;100.00;101797.47;5139517;28;20363;-78
2023/12/14 11:01:24;;;;;;;10.32;7.70;;;;;;;4.35;100.00;101804.84;5153528;28;20024;-79
2023/12/14 11:03:58;;;;;;;11.90;8.73;;;;;;;4.36;100.00;101814.38;5138729;28;20065;-78
2023/12/14 11:06:37;;;;;;;10.68;8.15;;;;;;;4.55;100.00;101809.72;5138819;29;20046;-78
2023/12/14 11:09:10;;;;;;;10.80;7.50;;;;;;;4.63;100.00;101808.22;5138891;29;20094;-79
2023/12/14 11:11:56;;;;;;;8.98;6.95;;;;;;;4.74;100.00;101811.13;5138303;28;20066;-78
2023/12/14 11:14:29;;;;;;;9.00;7.70;;;;;;;4.82;100.00;101813.91;5142065;29;20054;-78
2023/12/14 11:17:06;;;;;;;8.10;6.50;;;;;;;4.90;100.00;101822.75;5155799;28;20070;-78
2023/12/14 11:19:39;;;;;;;10.23;7.57;;;;;;;4.92;100.00;101821.94;5226816;28;20039;-78
2023/12/14 11:22:12;;;;;;;9.68;6.82;;;;;;;4.99;100.00;101830.75;5138919;29;20149;-79
2023/12/14 11:24:52;;;;;;;9.55;8.30;;;;;;;5.19;100.00;101840.75;5138764;29;20040;-78
2023/12/14 11:27:28;;;;;;;8.93;7.53;;;;;;;5.35;100.00;101848.06;5138649;29;20062;-78
2023/12/14 11:30:02;;;;;;;9.88;8.52;;;;;;;5.06;100.00;101855.91;5138220;29;20063;-78